sensor_id;sensor_type;location;lat;lon;timestamp;P1;durP1;ratioP1;P2;durP2;ratioP2
24681;SDS011;12802;53.390;-2.328;2023-01-19T00:01:24;9.00;;;4.70;;
24681;SDS011;12802;53.390;-2.328;2023-01-19T00:03:50;18.67;;;5.28;;
24681;SDS011;12802;53.390;-2.328;2023-01-19T00:06:16;9.30;;;4.47;;
24681;SDS011;12802;53.390;-2.328;2023-01-19T00:08:42;9.38;;;4.78;;
24681;SDS011;12802;53.390;-2.328;2023-01-19T00:11:10;11.50;;;4.97;;
24681;SDS011;12802;53.390;-2.328;2023-01-19T00:13:37;9.98;;;4.85;;
24681;SDS011;12802;53.390;-2.328;2023-01-19T00:16:03;7.70;;;4.30;;
24681;SDS011;12802;53.390;-2.328;2023-01-19T00:18:30;8.30;;;4.70;;
24681;SDS011;12802;53.390;-2.328;2023-01-19T00:20:56;11.68;;;3.67;;
24681;SDS011;12802;53.390;-2.328;2023-01-19T00:23:21;5.47;;;3.47;;
24681;SDS011;12802;53.390;-2.328;2023-01-19T00:25:48;13.40;;;4.45;;
24681;SDS011;12802;53.390;-2.328;2023-01-19T00:28:15;12.77;;;3.03;;
24681;SDS011;12802;53.390;-2.328;2023-01-19T00:30:44;10.10;;;4.07;;
24681;SDS011;12802;53.390;-2.328;2023-01-19T00:33:10;9.13;;;3.50;;
24681;SDS011;12802;53.390;-2.328;2023-01-19T00:38:06;13.23;;;3.72;;
24681;SDS011;12802;53.390;-2.328;2023-01-19T00:40:33;5.20;;;2.90;;
24681;SDS011;12802;53.390;-2.328;2023-01-19T00:42:59;8.55;;;2.67;;
24681;SDS011;12802;53.390;-2.328;2023-01-19T00:45:24;7.88;;;3.67;;
24681;SDS011;12802;53.390;-2.328;2023-01-19T00:47:50;7.88;;;2.47;;
24681;SDS011;12802;53.390;-2.328;2023-01-19T00:50:21;6.57;;;1.98;;
24681;SDS011;12802;53.390;-2.328;2023-01-19T00:52:47;5.35;;;2.83;;
24681;SDS011;12802;53.390;-2.328;2023-01-19T00:55:14;6.03;;;2.50;;
24681;SDS011;12802;53.390;-2.328;2023-01-19T00:57:40;6.90;;;2.45;;
24681;SDS011;12802;53.390;-2.328;2023-01-19T01:00:08;4.93;;;2.20;;
24681;SDS011;12802;53.390;-2.328;2023-01-19T01:02:36;7.95;;;1.83;;
24681;SDS011;12802;53.390;-2.328;2023-01-19T01:05:03;2.63;;;1.33;;
24681;SDS011;12802;53.390;-2.328;2023-01-19T01:07:30;4.32;;;1.75;;
24681;SDS011;12802;53.390;-2.328;2023-01-19T01:09:59;3.28;;;1.02;;
24681;SDS011;12802;53.390;-2.328;2023-01-19T01:12:25;5.35;;;2.33;;
24681;SDS011;12802;53.390;-2.328;2023-01-19T01:14:51;10.25;;;2.17;;
24681;SDS011;12802;53.390;-2.328;2023-01-19T01:17:17;3.90;;;1.25;;
24681;SDS011;12802;53.390;-2.328;2023-01-19T01:19:49;9.88;;;1.63;;
24681;SDS011;12802;53.390;-2.328;2023-01-19T01:22:15;5.07;;;1.40;;
24681;SDS011;12802;53.390;-2.328;2023-01-19T01:24:41;2.88;;;1.38;;
24681;SDS011;12802;53.390;-2.328;2023-01-19T01:27:07;2.53;;;0.98;;
24681;SDS011;12802;53.390;-2.328;2023-01-19T01:29:33;2.15;;;1.08;;
24681;SDS011;12802;53.390;-2.328;2023-01-19T01:31:59;4.85;;;1.15;;
24681;SDS011;12802;53.390;-2.328;2023-01-19T01:34:26;6.47;;;1.50;;
24681;SDS011;12802;53.390;-2.328;2023-01-19T01:36:52;2.63;;;0.98;;
24681;SDS011;12802;53.390;-2.328;2023-01-19T01:39:19;1.92;;;0.82;;
24681;SDS011;12802;53.390;-2.328;2023-01-19T01:41:46;7.38;;;1.10;;
24681;SDS011;12802;53.390;-2.328;2023-01-19T01:47:19;3.53;;;1.20;;
24681;SDS011;12802;53.390;-2.328;2023-01-19T01:50:03;1.10;;;0.77;;
24681;SDS011;12802;53.390;-2.328;2023-01-19T01:52:51;1.05;;;0.73;;
24681;SDS011;12802;53.390;-2.328;2023-01-19T01:55:33;8.90;;;1.40;;
24681;SDS011;12802;53.390;-2.328;2023-01-19T01:58:05;3.40;;;1.38;;
24681;SDS011;12802;53.390;-2.328;2023-01-19T02:00:33;2.67;;;0.93;;
24681;SDS011;12802;53.390;-2.328;2023-01-19T02:03:19;2.13;;;1.10;;
24681;SDS011;12802;53.390;-2.328;2023-01-19T02:05:46;13.90;;;1.80;;
24681;SDS011;12802;53.390;-2.328;2023-01-19T02:11:00;0.82;;;0.60;;
24681;SDS011;12802;53.390;-2.328;2023-01-19T02:13:45;1.83;;;0.90;;
24681;SDS011;12802;53.390;-2.328;2023-01-19T02:16:12;6.18;;;0.82;;
24681;SDS011;12802;53.390;-2.328;2023-01-19T02:18:39;4.75;;;1.45;;
24681;SDS011;12802;53.390;-2.328;2023-01-19T02:21:09;3.90;;;1.00;;
24681;SDS011;12802;53.390;-2.328;2023-01-19T02:23:36;2.95;;;1.38;;
24681;SDS011;12802;53.390;-2.328;2023-01-19T02:26:03;1.25;;;0.85;;
24681;SDS011;12802;53.390;-2.328;2023-01-19T02:28:29;2.70;;;1.30;;
24681;SDS011;12802;53.390;-2.328;2023-01-19T02:30:56;2.88;;;1.10;;
24681;SDS011;12802;53.390;-2.328;2023-01-19T02:33:21;2.65;;;1.05;;
24681;SDS011;12802;53.390;-2.328;2023-01-19T02:35:48;3.22;;;1.42;;
24681;SDS011;12802;53.390;-2.328;2023-01-19T02:38:16;4.75;;;0.95;;
24681;SDS011;12802;53.390;-2.328;2023-01-19T02:40:44;4.95;;;1.75;;
24681;SDS011;12802;53.390;-2.328;2023-01-19T02:43:11;6.25;;;1.08;;
24681;SDS011;12802;53.390;-2.328;2023-01-19T02:45:38;1.13;;;0.80;;
24681;SDS011;12802;53.390;-2.328;2023-01-19T02:48:04;1.92;;;1.00;;
24681;SDS011;12802;53.390;-2.328;2023-01-19T02:50:35;2.70;;;1.20;;
24681;SDS011;12802;53.390;-2.328;2023-01-19T02:55:57;4.97;;;1.35;;
24681;SDS011;12802;53.390;-2.328;2023-01-19T02:58:43;6.07;;;1.60;;
24681;SDS011;12802;53.390;-2.328;2023-01-19T03:01:22;2.08;;;1.13;;
24681;SDS011;12802;53.390;-2.328;2023-01-19T03:06:48;2.38;;;1.33;;
24681;SDS011;12802;53.390;-2.328;2023-01-19T03:09:27;7.05;;;1.75;;
24681;SDS011;12802;53.390;-2.328;2023-01-19T03:15:05;5.72;;;2.13;;
24681;SDS011;12802;53.390;-2.328;2023-01-19T03:17:54;8.02;;;2.50;;
24681;SDS011;12802;53.390;-2.328;2023-01-19T03:20:23;6.97;;;2.10;;
24681;SDS011;12802;53.390;-2.328;2023-01-19T03:22:51;2.38;;;1.40;;
24681;SDS011;12802;53.390;-2.328;2023-01-19T03:25:25;4.22;;;2.20;;
24681;SDS011;12802;53.390;-2.328;2023-01-19T03:27:52;5.72;;;2.15;;
24681;SDS011;12802;53.390;-2.328;2023-01-19T03:30:27;12.80;;;2.53;;
24681;SDS011;12802;53.390;-2.328;2023-01-19T03:32:59;4.25;;;2.10;;
24681;SDS011;12802;53.390;-2.328;2023-01-19T03:35:30;5.60;;;1.75;;
24681;SDS011;12802;53.390;-2.328;2023-01-19T03:40:26;12.52;;;2.20;;
24681;SDS011;12802;53.390;-2.328;2023-01-19T03:42:54;4.78;;;2.63;;
24681;SDS011;12802;53.390;-2.328;2023-01-19T03:45:20;9.35;;;2.15;;
24681;SDS011;12802;53.390;-2.328;2023-01-19T03:47:47;5.35;;;2.97;;
24681;SDS011;12802;53.390;-2.328;2023-01-19T03:50:17;6.13;;;2.03;;
24681;SDS011;12802;53.390;-2.328;2023-01-19T03:53:10;6.40;;;2.97;;
24681;SDS011;12802;53.390;-2.328;2023-01-19T03:55:38;3.53;;;2.13;;
24681;SDS011;12802;53.390;-2.328;2023-01-19T03:58:05;2.30;;;1.77;;
24681;SDS011;12802;53.390;-2.328;2023-01-19T04:00:31;6.43;;;2.78;;
24681;SDS011;12802;53.390;-2.328;2023-01-19T04:02:58;7.90;;;2.22;;
24681;SDS011;12802;53.390;-2.328;2023-01-19T04:05:24;3.38;;;2.30;;
24681;SDS011;12802;53.390;-2.328;2023-01-19T04:07:50;5.43;;;2.70;;
24681;SDS011;12802;53.390;-2.328;2023-01-19T04:10:16;7.78;;;2.50;;
24681;SDS011;12802;53.390;-2.328;2023-01-19T04:12:43;3.67;;;1.98;;
24681;SDS011;12802;53.390;-2.328;2023-01-19T04:15:10;5.95;;;2.63;;
24681;SDS011;12802;53.390;-2.328;2023-01-19T04:17:36;8.40;;;2.65;;
24681;SDS011;12802;53.390;-2.328;2023-01-19T04:20:03;7.10;;;2.42;;
24681;SDS011;12802;53.390;-2.328;2023-01-19T04:22:30;6.88;;;2.45;;
24681;SDS011;12802;53.390;-2.328;2023-01-19T04:24:56;6.10;;;2.75;;
24681;SDS011;12802;53.390;-2.328;2023-01-19T04:27:22;5.30;;;2.20;;
24681;SDS011;12802;53.390;-2.328;2023-01-19T04:29:47;12.35;;;3.53;;
24681;SDS011;12802;53.390;-2.328;2023-01-19T04:32:13;8.57;;;4.05;;
24681;SDS011;12802;53.390;-2.328;2023-01-19T04:34:40;6.43;;;3.88;;
24681;SDS011;12802;53.390;-2.328;2023-01-19T04:37:05;8.02;;;3.70;;
24681;SDS011;12802;53.390;-2.328;2023-01-19T04:39:32;9.63;;;3.58;;
24681;SDS011;12802;53.390;-2.328;2023-01-19T04:41:59;7.07;;;3.70;;
24681;SDS011;12802;53.390;-2.328;2023-01-19T04:44:25;10.98;;;4.20;;
24681;SDS011;12802;53.390;-2.328;2023-01-19T04:46:52;10.13;;;3.67;;
24681;SDS011;12802;53.390;-2.328;2023-01-19T04:49:19;10.20;;;3.60;;
24681;SDS011;12802;53.390;-2.328;2023-01-19T04:51:45;5.57;;;3.28;;
24681;SDS011;12802;53.390;-2.328;2023-01-19T04:54:10;2.67;;;1.75;;
24681;SDS011;12802;53.390;-2.328;2023-01-19T04:56:36;4.57;;;2.80;;
24681;SDS011;12802;53.390;-2.328;2023-01-19T04:59:02;3.95;;;1.83;;
24681;SDS011;12802;53.390;-2.328;2023-01-19T05:01:28;3.42;;;1.98;;
24681;SDS011;12802;53.390;-2.328;2023-01-19T05:03:54;2.78;;;1.65;;
24681;SDS011;12802;53.390;-2.328;2023-01-19T05:06:22;3.28;;;1.70;;
24681;SDS011;12802;53.390;-2.328;2023-01-19T05:08:48;3.58;;;2.03;;
24681;SDS011;12802;53.390;-2.328;2023-01-19T05:11:14;1.98;;;1.42;;
24681;SDS011;12802;53.390;-2.328;2023-01-19T05:13:39;2.47;;;1.15;;
24681;SDS011;12802;53.390;-2.328;2023-01-19T05:16:05;7.65;;;1.45;;
24681;SDS011;12802;53.390;-2.328;2023-01-19T05:18:31;3.92;;;1.08;;
24681;SDS011;12802;53.390;-2.328;2023-01-19T05:21:01;2.17;;;1.37;;
24681;SDS011;12802;53.390;-2.328;2023-01-19T05:23:27;1.73;;;1.20;;
24681;SDS011;12802;53.390;-2.328;2023-01-19T05:25:55;2.42;;;1.38;;
24681;SDS011;12802;53.390;-2.328;2023-01-19T05:28:21;3.20;;;1.67;;
24681;SDS011;12802;53.390;-2.328;2023-01-19T05:30:50;2.60;;;1.60;;
24681;SDS011;12802;53.390;-2.328;2023-01-19T05:33:16;1.75;;;0.93;;
24681;SDS011;12802;53.390;-2.328;2023-01-19T05:35:41;2.88;;;1.52;;
24681;SDS011;12802;53.390;-2.328;2023-01-19T05:38:07;6.93;;;2.65;;
24681;SDS011;12802;53.390;-2.328;2023-01-19T05:40:33;6.43;;;2.13;;
24681;SDS011;12802;53.390;-2.328;2023-01-19T05:42:59;3.33;;;2.10;;
24681;SDS011;12802;53.390;-2.328;2023-01-19T05:45:28;5.35;;;1.80;;
24681;SDS011;12802;53.390;-2.328;2023-01-19T05:47:54;10.80;;;1.73;;
24681;SDS011;12802;53.390;-2.328;2023-01-19T05:50:19;3.83;;;1.90;;
24681;SDS011;12802;53.390;-2.328;2023-01-19T05:52:45;8.25;;;2.15;;
24681;SDS011;12802;53.390;-2.328;2023-01-19T05:55:11;6.28;;;2.03;;
24681;SDS011;12802;53.390;-2.328;2023-01-19T05:57:38;3.97;;;2.38;;
24681;SDS011;12802;53.390;-2.328;2023-01-19T06:00:04;5.55;;;1.83;;
24681;SDS011;12802;53.390;-2.328;2023-01-19T06:02:34;4.63;;;2.30;;
24681;SDS011;12802;53.390;-2.328;2023-01-19T06:05:00;7.60;;;2.47;;
24681;SDS011;12802;53.390;-2.328;2023-01-19T06:07:26;5.10;;;2.10;;
24681;SDS011;12802;53.390;-2.328;2023-01-19T06:09:52;3.72;;;2.35;;
24681;SDS011;12802;53.390;-2.328;2023-01-19T06:12:17;7.40;;;2.63;;
24681;SDS011;12802;53.390;-2.328;2023-01-19T06:14:43;4.70;;;2.20;;
24681;SDS011;12802;53.390;-2.328;2023-01-19T06:17:09;4.28;;;2.60;;
24681;SDS011;12802;53.390;-2.328;2023-01-19T06:19:35;9.20;;;2.40;;
24681;SDS011;12802;53.390;-2.328;2023-01-19T06:22:01;5.72;;;2.13;;
24681;SDS011;12802;53.390;-2.328;2023-01-19T06:24:26;4.65;;;2.38;;
24681;SDS011;12802;53.390;-2.328;2023-01-19T06:26:53;3.25;;;2.30;;
24681;SDS011;12802;53.390;-2.328;2023-01-19T06:29:19;4.95;;;2.15;;
24681;SDS011;12802;53.390;-2.328;2023-01-19T06:31:46;7.60;;;2.00;;
24681;SDS011;12802;53.390;-2.328;2023-01-19T06:34:12;5.45;;;2.53;;
24681;SDS011;12802;53.390;-2.328;2023-01-19T06:36:38;5.40;;;2.72;;
24681;SDS011;12802;53.390;-2.328;2023-01-19T06:39:03;5.97;;;3.10;;
24681;SDS011;12802;53.390;-2.328;2023-01-19T06:41:33;5.25;;;2.25;;
24681;SDS011;12802;53.390;-2.328;2023-01-19T06:43:59;4.93;;;2.25;;
24681;SDS011;12802;53.390;-2.328;2023-01-19T06:46:26;4.63;;;2.50;;
24681;SDS011;12802;53.390;-2.328;2023-01-19T06:48:52;5.30;;;2.60;;
24681;SDS011;12802;53.390;-2.328;2023-01-19T06:51:18;6.90;;;2.67;;
24681;SDS011;12802;53.390;-2.328;2023-01-19T06:53:45;3.50;;;2.20;;
24681;SDS011;12802;53.390;-2.328;2023-01-19T06:56:10;3.20;;;2.13;;
24681;SDS011;12802;53.390;-2.328;2023-01-19T06:58:37;5.47;;;2.22;;
24681;SDS011;12802;53.390;-2.328;2023-01-19T07:01:03;6.63;;;2.22;;
24681;SDS011;12802;53.390;-2.328;2023-01-19T07:03:30;5.80;;;2.72;;
24681;SDS011;12802;53.390;-2.328;2023-01-19T07:05:56;8.05;;;2.63;;
24681;SDS011;12802;53.390;-2.328;2023-01-19T07:08:24;3.55;;;2.00;;
24681;SDS011;12802;53.390;-2.328;2023-01-19T07:10:50;3.58;;;2.17;;
24681;SDS011;12802;53.390;-2.328;2023-01-19T07:13:16;3.38;;;1.95;;
24681;SDS011;12802;53.390;-2.328;2023-01-19T07:15:42;9.23;;;2.47;;
24681;SDS011;12802;53.390;-2.328;2023-01-19T07:18:08;2.72;;;2.13;;
24681;SDS011;12802;53.390;-2.328;2023-01-19T07:20:34;4.90;;;3.08;;
24681;SDS011;12802;53.390;-2.328;2023-01-19T07:23:01;8.82;;;4.00;;
24681;SDS011;12802;53.390;-2.328;2023-01-19T07:25:27;6.57;;;3.95;;
24681;SDS011;12802;53.390;-2.328;2023-01-19T07:27:57;9.45;;;4.60;;
24681;SDS011;12802;53.390;-2.328;2023-01-19T07:30:24;10.20;;;4.70;;
24681;SDS011;12802;53.390;-2.328;2023-01-19T07:32:50;8.05;;;4.30;;
24681;SDS011;12802;53.390;-2.328;2023-01-19T07:35:18;14.55;;;4.43;;
24681;SDS011;12802;53.390;-2.328;2023-01-19T07:37:46;9.07;;;4.30;;
24681;SDS011;12802;53.390;-2.328;2023-01-19T07:40:12;8.05;;;4.15;;
24681;SDS011;12802;53.390;-2.328;2023-01-19T07:42:38;9.45;;;4.22;;
24681;SDS011;12802;53.390;-2.328;2023-01-19T07:45:03;9.40;;;4.25;;
24681;SDS011;12802;53.390;-2.328;2023-01-19T07:47:29;8.10;;;4.35;;
24681;SDS011;12802;53.390;-2.328;2023-01-19T07:49:55;7.38;;;3.75;;
24681;SDS011;12802;53.390;-2.328;2023-01-19T07:52:21;12.25;;;3.90;;
24681;SDS011;12802;53.390;-2.328;2023-01-19T07:54:47;6.03;;;2.83;;
24681;SDS011;12802;53.390;-2.328;2023-01-19T07:57:15;6.25;;;3.25;;
24681;SDS011;12802;53.390;-2.328;2023-01-19T07:59:41;7.00;;;2.83;;
24681;SDS011;12802;53.390;-2.328;2023-01-19T08:02:08;14.82;;;3.85;;
24681;SDS011;12802;53.390;-2.328;2023-01-19T08:04:34;8.35;;;3.10;;
24681;SDS011;12802;53.390;-2.328;2023-01-19T08:07:00;7.72;;;3.42;;
24681;SDS011;12802;53.390;-2.328;2023-01-19T08:09:26;15.73;;;3.65;;
24681;SDS011;12802;53.390;-2.328;2023-01-19T08:11:52;4.97;;;3.15;;
24681;SDS011;12802;53.390;-2.328;2023-01-19T08:14:17;6.00;;;2.90;;
24681;SDS011;12802;53.390;-2.328;2023-01-19T08:16:43;5.82;;;2.92;;
24681;SDS011;12802;53.390;-2.328;2023-01-19T08:19:09;7.45;;;3.35;;
24681;SDS011;12802;53.390;-2.328;2023-01-19T08:21:35;3.97;;;2.85;;
24681;SDS011;12802;53.390;-2.328;2023-01-19T08:24:02;7.50;;;3.03;;
24681;SDS011;12802;53.390;-2.328;2023-01-19T08:26:29;4.03;;;2.13;;
24681;SDS011;12802;53.390;-2.328;2023-01-19T08:28:58;8.07;;;1.75;;
24681;SDS011;12802;53.390;-2.328;2023-01-19T08:31:28;12.50;;;2.08;;
24681;SDS011;12802;53.390;-2.328;2023-01-19T08:33:54;4.97;;;2.58;;
24681;SDS011;12802;53.390;-2.328;2023-01-19T08:36:20;5.75;;;2.40;;
24681;SDS011;12802;53.390;-2.328;2023-01-19T08:38:46;4.70;;;2.40;;
24681;SDS011;12802;53.390;-2.328;2023-01-19T08:41:12;5.55;;;1.90;;
24681;SDS011;12802;53.390;-2.328;2023-01-19T08:43:39;12.60;;;2.72;;
24681;SDS011;12802;53.390;-2.328;2023-01-19T08:46:05;4.25;;;2.40;;
24681;SDS011;12802;53.390;-2.328;2023-01-19T08:48:31;4.53;;;2.55;;
24681;SDS011;12802;53.390;-2.328;2023-01-19T08:50:57;5.07;;;1.95;;
24681;SDS011;12802;53.390;-2.328;2023-01-19T08:53:24;9.13;;;3.05;;
24681;SDS011;12802;53.390;-2.328;2023-01-19T08:55:53;5.40;;;2.47;;
24681;SDS011;12802;53.390;-2.328;2023-01-19T08:58:27;7.57;;;3.00;;
24681;SDS011;12802;53.390;-2.328;2023-01-19T09:00:53;4.40;;;2.70;;
24681;SDS011;12802;53.390;-2.328;2023-01-19T09:03:20;5.43;;;2.58;;
24681;SDS011;12802;53.390;-2.328;2023-01-19T09:05:46;5.30;;;2.50;;
24681;SDS011;12802;53.390;-2.328;2023-01-19T09:08:13;5.82;;;2.72;;
24681;SDS011;12802;53.390;-2.328;2023-01-19T09:10:43;8.45;;;3.47;;
24681;SDS011;12802;53.390;-2.328;2023-01-19T09:13:11;12.55;;;3.05;;
24681;SDS011;12802;53.390;-2.328;2023-01-19T09:15:38;3.95;;;2.50;;
24681;SDS011;12802;53.390;-2.328;2023-01-19T09:18:06;5.28;;;2.50;;
24681;SDS011;12802;53.390;-2.328;2023-01-19T09:20:37;5.18;;;3.10;;
24681;SDS011;12802;53.390;-2.328;2023-01-19T09:23:03;15.60;;;3.92;;
24681;SDS011;12802;53.390;-2.328;2023-01-19T09:25:30;11.15;;;3.80;;
24681;SDS011;12802;53.390;-2.328;2023-01-19T09:27:58;7.70;;;3.75;;
24681;SDS011;12802;53.390;-2.328;2023-01-19T09:30:24;10.32;;;4.00;;
24681;SDS011;12802;53.390;-2.328;2023-01-19T09:32:51;11.70;;;3.97;;
24681;SDS011;12802;53.390;-2.328;2023-01-19T09:35:17;9.60;;;3.42;;
24681;SDS011;12802;53.390;-2.328;2023-01-19T09:37:46;7.55;;;3.55;;
24681;SDS011;12802;53.390;-2.328;2023-01-19T09:40:12;6.20;;;3.53;;
24681;SDS011;12802;53.390;-2.328;2023-01-19T09:45:38;11.35;;;3.97;;
24681;SDS011;12802;53.390;-2.328;2023-01-19T09:48:02;17.52;;;4.72;;
24681;SDS011;12802;53.390;-2.328;2023-01-19T09:50:35;9.60;;;4.10;;
24681;SDS011;12802;53.390;-2.328;2023-01-19T09:53:08;10.95;;;3.65;;
24681;SDS011;12802;53.390;-2.328;2023-01-19T09:55:41;6.90;;;3.83;;
24681;SDS011;12802;53.390;-2.328;2023-01-19T09:58:13;20.35;;;4.47;;
24681;SDS011;12802;53.390;-2.328;2023-01-19T10:00:49;11.07;;;4.53;;
24681;SDS011;12802;53.390;-2.328;2023-01-19T10:03:21;7.90;;;3.85;;
24681;SDS011;12802;53.390;-2.328;2023-01-19T10:05:56;7.20;;;4.05;;
24681;SDS011;12802;53.390;-2.328;2023-01-19T10:08:43;21.35;;;4.40;;
24681;SDS011;12802;53.390;-2.328;2023-01-19T10:11:18;14.43;;;3.75;;
24681;SDS011;12802;53.390;-2.328;2023-01-19T10:13:50;10.75;;;4.20;;
24681;SDS011;12802;53.390;-2.328;2023-01-19T10:18:49;12.10;;;4.45;;
24681;SDS011;12802;53.390;-2.328;2023-01-19T10:26:58;7.15;;;3.17;;
24681;SDS011;12802;53.390;-2.328;2023-01-19T10:29:27;7.13;;;3.97;;
24681;SDS011;12802;53.390;-2.328;2023-01-19T10:32:23;7.75;;;3.53;;
24681;SDS011;12802;53.390;-2.328;2023-01-19T10:34:58;4.47;;;2.85;;
24681;SDS011;12802;53.390;-2.328;2023-01-19T10:37:37;12.45;;;4.55;;
24681;SDS011;12802;53.390;-2.328;2023-01-19T10:42:33;12.93;;;4.38;;
24681;SDS011;12802;53.390;-2.328;2023-01-19T10:44:59;7.90;;;3.05;;
24681;SDS011;12802;53.390;-2.328;2023-01-19T10:47:29;7.05;;;3.10;;
24681;SDS011;12802;53.390;-2.328;2023-01-19T10:49:59;8.05;;;3.42;;
24681;SDS011;12802;53.390;-2.328;2023-01-19T10:52:47;5.97;;;2.78;;
24681;SDS011;12802;53.390;-2.328;2023-01-19T10:58:02;8.50;;;4.10;;
24681;SDS011;12802;53.390;-2.328;2023-01-19T11:00:33;10.50;;;3.70;;
24681;SDS011;12802;53.390;-2.328;2023-01-19T11:03:20;10.82;;;4.80;;
24681;SDS011;12802;53.390;-2.328;2023-01-19T11:08:37;7.68;;;3.58;;
24681;SDS011;12802;53.390;-2.328;2023-01-19T11:11:03;7.13;;;3.40;;
24681;SDS011;12802;53.390;-2.328;2023-01-19T11:13:32;3.35;;;2.58;;
24681;SDS011;12802;53.390;-2.328;2023-01-19T11:16:03;5.85;;;3.17;;
24681;SDS011;12802;53.390;-2.328;2023-01-19T11:18:32;5.47;;;3.38;;
24681;SDS011;12802;53.390;-2.328;2023-01-19T11:21:05;9.48;;;4.22;;
24681;SDS011;12802;53.390;-2.328;2023-01-19T11:23:45;14.88;;;4.63;;
24681;SDS011;12802;53.390;-2.328;2023-01-19T11:28:52;11.75;;;3.53;;
24681;SDS011;12802;53.390;-2.328;2023-01-19T11:33:53;9.13;;;3.70;;
24681;SDS011;12802;53.390;-2.328;2023-01-19T11:36:21;8.07;;;4.20;;
24681;SDS011;12802;53.390;-2.328;2023-01-19T11:38:49;6.82;;;3.40;;
24681;SDS011;12802;53.390;-2.328;2023-01-19T11:41:17;6.93;;;3.67;;
24681;SDS011;12802;53.390;-2.328;2023-01-19T11:43:48;13.35;;;4.38;;
24681;SDS011;12802;53.390;-2.328;2023-01-19T11:46:33;6.45;;;3.60;;
24681;SDS011;12802;53.390;-2.328;2023-01-19T11:49:07;10.50;;;4.75;;
24681;SDS011;12802;53.390;-2.328;2023-01-19T11:51:49;6.95;;;3.67;;
24681;SDS011;12802;53.390;-2.328;2023-01-19T11:54:25;4.60;;;3.20;;
24681;SDS011;12802;53.390;-2.328;2023-01-19T11:56:57;9.43;;;3.47;;
24681;SDS011;12802;53.390;-2.328;2023-01-19T11:59:24;16.10;;;4.20;;
24681;SDS011;12802;53.390;-2.328;2023-01-19T12:01:51;9.40;;;5.13;;
24681;SDS011;12802;53.390;-2.328;2023-01-19T12:04:32;9.13;;;3.97;;
24681;SDS011;12802;53.390;-2.328;2023-01-19T12:07:02;8.32;;;3.72;;
24681;SDS011;12802;53.390;-2.328;2023-01-19T12:09:35;10.55;;;4.10;;
24681;SDS011;12802;53.390;-2.328;2023-01-19T12:12:08;8.85;;;3.35;;
24681;SDS011;12802;53.390;-2.328;2023-01-19T12:17:50;7.47;;;3.88;;
24681;SDS011;12802;53.390;-2.328;2023-01-19T12:20:26;6.55;;;3.42;;
24681;SDS011;12802;53.390;-2.328;2023-01-19T12:25:44;6.22;;;2.80;;
24681;SDS011;12802;53.390;-2.328;2023-01-19T12:28:31;5.65;;;3.03;;
24681;SDS011;12802;53.390;-2.328;2023-01-19T12:30:59;9.00;;;4.13;;
24681;SDS011;12802;53.390;-2.328;2023-01-19T12:33:33;8.27;;;3.53;;
24681;SDS011;12802;53.390;-2.328;2023-01-19T12:38:39;11.18;;;4.13;;
24681;SDS011;12802;53.390;-2.328;2023-01-19T12:44:27;10.65;;;3.78;;
24681;SDS011;12802;53.390;-2.328;2023-01-19T12:46:57;6.85;;;3.80;;
24681;SDS011;12802;53.390;-2.328;2023-01-19T12:55:06;8.60;;;4.68;;
24681;SDS011;12802;53.390;-2.328;2023-01-19T13:00:36;10.23;;;5.55;;
24681;SDS011;12802;53.390;-2.328;2023-01-19T13:13:24;8.30;;;3.95;;
24681;SDS011;12802;53.390;-2.328;2023-01-19T13:15:52;5.97;;;3.57;;
24681;SDS011;12802;53.390;-2.328;2023-01-19T13:18:26;7.22;;;4.50;;
24681;SDS011;12802;53.390;-2.328;2023-01-19T13:20:56;7.10;;;4.43;;
24681;SDS011;12802;53.390;-2.328;2023-01-19T13:23:26;7.88;;;3.75;;
24681;SDS011;12802;53.390;-2.328;2023-01-19T13:26:03;6.22;;;3.67;;
24681;SDS011;12802;53.390;-2.328;2023-01-19T13:28:32;10.95;;;4.22;;
24681;SDS011;12802;53.390;-2.328;2023-01-19T13:31:03;13.75;;;4.18;;
24681;SDS011;12802;53.390;-2.328;2023-01-19T13:34:17;9.13;;;4.40;;
24681;SDS011;12802;53.390;-2.328;2023-01-19T13:38:54;7.50;;;3.25;;
24681;SDS011;12802;53.390;-2.328;2023-01-19T13:41:23;16.08;;;4.30;;
24681;SDS011;12802;53.390;-2.328;2023-01-19T13:44:26;10.50;;;3.53;;
24681;SDS011;12802;53.390;-2.328;2023-01-19T13:46:48;6.18;;;3.38;;
24681;SDS011;12802;53.390;-2.328;2023-01-19T13:52:04;6.20;;;2.40;;
24681;SDS011;12802;53.390;-2.328;2023-01-19T13:54:29;4.90;;;2.55;;
24681;SDS011;12802;53.390;-2.328;2023-01-19T13:56:55;4.50;;;2.33;;
24681;SDS011;12802;53.390;-2.328;2023-01-19T13:59:21;5.93;;;2.25;;
24681;SDS011;12802;53.390;-2.328;2023-01-19T14:01:47;6.95;;;2.10;;
24681;SDS011;12802;53.390;-2.328;2023-01-19T14:04:36;5.13;;;2.40;;
24681;SDS011;12802;53.390;-2.328;2023-01-19T14:07:01;4.55;;;1.83;;
24681;SDS011;12802;53.390;-2.328;2023-01-19T14:09:30;6.47;;;2.72;;
24681;SDS011;12802;53.390;-2.328;2023-01-19T14:12:06;3.47;;;2.08;;
24681;SDS011;12802;53.390;-2.328;2023-01-19T14:14:35;9.23;;;1.92;;
24681;SDS011;12802;53.390;-2.328;2023-01-19T14:17:02;3.83;;;2.03;;
24681;SDS011;12802;53.390;-2.328;2023-01-19T14:19:28;4.60;;;1.83;;
24681;SDS011;12802;53.390;-2.328;2023-01-19T14:22:03;6.00;;;2.40;;
24681;SDS011;12802;53.390;-2.328;2023-01-19T14:24:29;5.55;;;1.77;;
24681;SDS011;12802;53.390;-2.328;2023-01-19T14:29:55;11.63;;;2.35;;
24681;SDS011;12802;53.390;-2.328;2023-01-19T14:32:44;3.38;;;1.75;;
24681;SDS011;12802;53.390;-2.328;2023-01-19T14:35:22;4.78;;;2.35;;
24681;SDS011;12802;53.390;-2.328;2023-01-19T14:37:49;2.75;;;1.95;;
24681;SDS011;12802;53.390;-2.328;2023-01-19T14:40:17;5.28;;;1.75;;
24681;SDS011;12802;53.390;-2.328;2023-01-19T14:42:58;3.95;;;0.90;;
24681;SDS011;12802;53.390;-2.328;2023-01-19T14:45:34;2.08;;;1.02;;
24681;SDS011;12802;53.390;-2.328;2023-01-19T14:48:11;4.07;;;1.35;;
24681;SDS011;12802;53.390;-2.328;2023-01-19T14:50:39;4.40;;;1.17;;
24681;SDS011;12802;53.390;-2.328;2023-01-19T14:53:07;4.60;;;0.95;;
24681;SDS011;12802;53.390;-2.328;2023-01-19T14:58:09;2.50;;;0.50;;
24681;SDS011;12802;53.390;-2.328;2023-01-19T15:00:35;1.98;;;0.60;;
24681;SDS011;12802;53.390;-2.328;2023-01-19T15:03:01;2.25;;;0.77;;
24681;SDS011;12802;53.390;-2.328;2023-01-19T15:05:30;2.72;;;0.70;;
24681;SDS011;12802;53.390;-2.328;2023-01-19T15:07:56;1.10;;;0.52;;
24681;SDS011;12802;53.390;-2.328;2023-01-19T15:10:23;1.80;;;0.65;;
24681;SDS011;12802;53.390;-2.328;2023-01-19T15:12:50;1.13;;;0.68;;
24681;SDS011;12802;53.390;-2.328;2023-01-19T15:15:19;4.28;;;0.95;;
24681;SDS011;12802;53.390;-2.328;2023-01-19T15:17:49;2.63;;;0.82;;
24681;SDS011;12802;53.390;-2.328;2023-01-19T15:20:19;6.63;;;0.75;;
24681;SDS011;12802;53.390;-2.328;2023-01-19T15:22:46;3.05;;;0.88;;
24681;SDS011;12802;53.390;-2.328;2023-01-19T15:25:16;3.38;;;1.23;;
24681;SDS011;12802;53.390;-2.328;2023-01-19T15:27:44;2.80;;;1.05;;
24681;SDS011;12802;53.390;-2.328;2023-01-19T15:32:42;7.28;;;1.30;;
24681;SDS011;12802;53.390;-2.328;2023-01-19T15:35:12;2.42;;;0.90;;
24681;SDS011;12802;53.390;-2.328;2023-01-19T15:37:39;3.70;;;1.25;;
24681;SDS011;12802;53.390;-2.328;2023-01-19T15:40:05;3.75;;;1.17;;
24681;SDS011;12802;53.390;-2.328;2023-01-19T15:42:31;1.23;;;0.57;;
24681;SDS011;12802;53.390;-2.328;2023-01-19T15:44:57;1.88;;;1.05;;
24681;SDS011;12802;53.390;-2.328;2023-01-19T15:47:23;0.75;;;0.35;;
24681;SDS011;12802;53.390;-2.328;2023-01-19T15:49:49;2.53;;;1.00;;
24681;SDS011;12802;53.390;-2.328;2023-01-19T15:52:14;2.08;;;0.70;;
24681;SDS011;12802;53.390;-2.328;2023-01-19T15:54:40;2.25;;;0.75;;
24681;SDS011;12802;53.390;-2.328;2023-01-19T15:57:06;1.40;;;0.75;;
24681;SDS011;12802;53.390;-2.328;2023-01-19T15:59:33;2.05;;;0.65;;
24681;SDS011;12802;53.390;-2.328;2023-01-19T16:01:58;1.52;;;0.75;;
24681;SDS011;12802;53.390;-2.328;2023-01-19T16:04:24;1.80;;;0.68;;
24681;SDS011;12802;53.390;-2.328;2023-01-19T16:06:50;4.72;;;0.70;;
24681;SDS011;12802;53.390;-2.328;2023-01-19T16:09:16;2.67;;;1.13;;
24681;SDS011;12802;53.390;-2.328;2023-01-19T16:11:44;6.47;;;0.60;;